^^
Datos históricos de la estación: Murcia-Puente Tocinos
Diario Informe para Abril 22, 2019 Unidades:  Ingés    Métrico   Ambas
Diario Semanal Mensual Anual
  Máxima: Mínima: Promedio:
Temperatura: 84.9 °F 71.4 °F 77.9 °F
Punto de rocio: 69.3 °F 60.8 °F 65.7 °F
Humedad: 84% 46.7% 67%
Velocidad viento: 10.2mph 0mph 4.7mph
Racha viento: 21mph - -
Viento- - SE
Presión: 30.1 in 30 in -
Precipitación: 0 in    
 
 
Tabla de datos para Abril 22, 2019
Hora Temperatura Punto de rocio Presión Viento Velocidad viento Racha viento Humedad Intensidad lluvia(por hora) Nubes
00:04 75.9 °F 65.8 °F 30.1 in SSO 1.8 mph 5.8 mph 71.1% 0 in
00:09 75.9 °F 66.2 °F 30.1 in SSE 2.1 mph 6 mph 72% 0 in
00:14 75.9 °F 66.2 °F 30.1 in SSE 3.1 mph 6 mph 72% 0 in
00:19 75.9 °F 66.2 °F 30.1 in SE 2.9 mph 4 mph 72% 0 in
00:24 75.9 °F 66.2 °F 30.1 in Sur 2 mph 6.2 mph 72% 0 in
00:29 75.9 °F 66.2 °F 30.1 in Sur 2.3 mph 6 mph 72% 0 in
00:34 75.7 °F 66 °F 30.1 in Sur 3.1 mph 6 mph 72% 0 in
00:39 75.7 °F 66.4 °F 30.1 in SSO 3.1 mph 6 mph 72.8% 0 in
00:44 75.7 °F 66.4 °F 30.1 in SSO 3.1 mph 5.8 mph 72.8% 0 in
00:49 75.7 °F 66 °F 30.1 in Sur 3.2 mph 6 mph 72% 0 in
00:54 75.7 °F 66 °F 30.1 in SSO 3.6 mph 6 mph 72% 0 in
00:59 75.7 °F 66.2 °F 30.1 in SSO 3.7 mph 6.2 mph 72% 0 in
01:04 75.9 °F 66.2 °F 30.1 in SSO 4 mph 6 mph 72% 0 in
01:09 75.9 °F 66.2 °F 30.1 in SO 3.8 mph 6 mph 72% 0 in
01:14 75.9 °F 66.2 °F 30.1 in OSO 3.1 mph 6.2 mph 72% 0 in
01:19 75.9 °F 66.2 °F 30.1 in SO 3 mph 6 mph 72% 0 in
01:24 75.9 °F 66.2 °F 30.1 in SO 2.9 mph 5 mph 72% 0 in
01:29 75.9 °F 66.2 °F 30.1 in OSO 2.9 mph 5.8 mph 72% 0 in
01:34 75.9 °F 66.2 °F 30.1 in ONO 2.9 mph 6 mph 72% 0 in
01:39 75.9 °F 66.2 °F 30.1 in Oeste 2.7 mph 5 mph 72.2% 0 in
01:44 75.7 °F 66.2 °F 30.1 in OSO 2 mph 5.2 mph 72.4% 0 in
01:49 75.6 °F 66.4 °F 30.1 in Oeste 2.1 mph 5 mph 73% 0 in
01:54 75.6 °F 66.2 °F 30.1 in SO 2.4 mph 5 mph 72.7% 0 in
01:59 75.6 °F 65.8 °F 30.1 in SSO 2.5 mph 5 mph 72% 0 in
02:04 75.6 °F 65.8 °F 30.1 in SSO 2.9 mph 5 mph 72% 0 in
02:09 75.6 °F 66.2 °F 30.1 in SSE 2.9 mph 8.1 mph 72.7% 0 in
02:14 75.4 °F 66.4 °F 30.1 in SSE 2.9 mph 8.1 mph 73.7% 0 in
02:19 74.8 °F 66.4 °F 30.1 in SSE 3.5 mph 8.1 mph 74.9% 0 in
02:24 74.7 °F 66.4 °F 30.1 in Sur 5.2 mph 8.1 mph 75.9% 0 in
02:29 74.3 °F 66.4 °F 30.1 in SSE 5.2 mph 8.5 mph 76.4% 0 in
02:34 74.1 °F 66.4 °F 30.1 in Sur 5.2 mph 9 mph 77% 0 in
02:39 74.1 °F 66.4 °F 30 in SSO 5 mph 7 mph 77% 0 in
02:44 73.9 °F 66.4 °F 30 in SSO 4.3 mph 7.4 mph 77% 0 in
02:49 74.1 °F 66.4 °F 30 in SSO 4.4 mph 7 mph 77% 0 in
02:54 74.1 °F 66.4 °F 30 in Sur 4.7 mph 7 mph 77% 0 in
02:59 74.1 °F 66.4 °F 30 in Sur 4.5 mph 6 mph 77% 0 in
03:04 74.3 °F 66.2 °F 30 in Sur 4 mph 6 mph 76% 0 in
03:09 74.3 °F 66.2 °F 30 in Sur 3.9 mph 6 mph 76% 0 in
03:14 74.1 °F 66.2 °F 30 in SSO 3.6 mph 6 mph 76% 0 in
03:19 74.1 °F 66 °F 30 in SSO 3.4 mph 5 mph 76% 0 in
03:24 74.1 °F 66 °F 30 in SSO 2.9 mph 5 mph 76% 0 in
03:29 74.1 °F 66 °F 30 in SSO 2.2 mph   76% 0 in
03:34 74.1 °F 66.2 °F 30 in Calm     76% 0 in
03:39 74.3 °F 66.2 °F 30 in Calm     76% 0 in
03:44 74.3 °F 66.2 °F 30 in Calm     75.9% 0 in
03:49 74.3 °F 66 °F 30 in Calm     75.7% 0 in
03:54 74.3 °F 66.2 °F 30 in Calm     76% 0 in
03:59 74.1 °F 66.4 °F 30 in Calm     76.7% 0 in
04:04 73.9 °F 66.4 °F 30 in Calm     77% 0 in
04:09 73.9 °F 66.6 °F 30 in Calm     77.9% 0 in
04:14 73.8 °F 66.6 °F 30 in Calm     78% 0 in
04:19 73.8 °F 66.4 °F 30 in Calm     78% 0 in
04:24 73.6 °F 66.4 °F 30 in Calm     78% 0 in
04:29 73.6 °F 66.4 °F 30 in Calm   3.6 mph 78.3% 0 in
04:34 73.6 °F 66.7 °F 30 in Calm   4 mph 79% 0 in
04:39 73.4 °F 66.6 °F 30 in ONO 0.5 mph 4 mph 79% 0 in
04:44 73.2 °F 66.4 °F 30 in ONO 2 mph 3 mph 79% 0 in
04:49 73.2 °F 66.4 °F 30 in ONO 1.6 mph   79% 0 in
04:54 73.2 °F 66.2 °F 30 in Calm     79% 0 in
04:59 73 °F 66.2 °F 30 in Calm   2.4 mph 79% 0 in
05:04 73 °F 66.2 °F 30 in Calm   3.6 mph 79% 0 in
05:09 72.9 °F 66.2 °F 30 in ENE 0.3 mph 4 mph 79.7% 0 in
05:14 72.7 °F 66.2 °F 30 in ENE 1.4 mph   80% 0 in
05:19 72.7 °F 66.4 °F 30 in ESE 1.4 mph 4.6 mph 80.6% 0 in
05:24 72.3 °F 66.2 °F 30 in SE 1.4 mph 5 mph 81% 0 in
05:29 72.3 °F 66.2 °F 30 in SSE 1.7 mph 5.9 mph 81.2% 0 in
05:34 72.1 °F 66.4 °F 30 in SSE 2.9 mph 6.4 mph 82% 0 in
05:39 72 °F 66.4 °F 30 in Sur 3.4 mph 7.4 mph 82.9% 0 in
05:44 71.8 °F 66.2 °F 30 in Sur 4.7 mph 7 mph 83% 0 in
05:49 71.6 °F 66.4 °F 30 in Sur 4.5 mph 6.2 mph 83.6% 0 in
05:54 71.4 °F 66.4 °F 30 in Sur 3.6 mph 6.2 mph 84% 0 in
05:59 71.4 °F 66.4 °F 30 in Sur 3.6 mph 6 mph 84% 0 in
06:04 71.6 °F 66.4 °F 30 in Sur 3.6 mph 6 mph 84% 0 in
06:09 71.6 °F 66.4 °F 30 in Sur 3.7 mph 6.9 mph 83.5% 0 in
06:14 71.8 °F 66.4 °F 30 in Sur 4 mph 7 mph 83% 0 in
06:19 71.8 °F 66.4 °F 30 in Sur 4 mph 6.2 mph 83% 0 in
06:24 72 °F 66.2 °F 30 in SSO 4 mph 6.9 mph 82.4% 0 in
06:29 72 °F 66.2 °F 30 in SSO 4.1 mph 7 mph 82% 0 in
06:34 72 °F 66.2 °F 30 in SSO 4.3 mph 7 mph 82% 0 in
06:39 72 °F 66 °F 30 in SSO 4.2 mph 6 mph 81.5% 0 in
06:44 72.1 °F 66 °F 30 in SO 3.6 mph 5 mph 81% 0 in
06:49 72.1 °F 66 °F 30 in SO 3.2 mph 4.6 mph 81% 0 in
06:54 72.1 °F 66 °F 30 in OSO 2 mph 5 mph 81% 0 in
06:59 72.3 °F 66.2 °F 30 in SO 2.1 mph 5 mph 81% 0 in
07:04 72.3 °F 66.2 °F 30 in SO 2.4 mph 5 mph 81% 0 in
07:09 72.3 °F 66.2 °F 30 in OSO 2.3 mph 4 mph 81% 0 in
07:14 72.1 °F 66 °F 30 in SO 2 mph 4 mph 81% 0 in
07:19 72.1 °F 66 °F 30 in SO 1.5 mph 4 mph 81% 0 in
07:24 72.1 °F 66 °F 30 in Calm   5 mph 81% 0 in
07:29 72.1 °F 66 °F 30 in SSO 0.6 mph 5 mph 81% 0 in
07:34 72.1 °F 66 °F 30 in SSO 2.4 mph 5 mph 81% 0 in
07:39 72 °F 65.8 °F 30 in SO 2.3 mph 5 mph 81% 0 in
07:44 72.1 °F 65.8 °F 30 in Oeste 2 mph 3.1 mph 81% 0 in
07:49 72 °F 65.8 °F 30 in Oeste 1.9 mph 3.5 mph 80.8% 0 in
07:54 72 °F 65.5 °F 30 in Oeste 1.8 mph 4.6 mph 80.1% 0 in
07:59 72 °F 65.5 °F 30 in OSO 1.9 mph 5 mph 80% 0 in
08:04 72 °F 65.5 °F 30.1 in OSO 2 mph 5 mph 80% 0 in
08:09 72 °F 65.3 °F 30.1 in Oeste 1.9 mph 5 mph 79.6% 0 in
08:14 72 °F 65.1 °F 30.1 in Oeste 1.8 mph 4.7 mph 79% 0 in
08:19 72.1 °F 65.3 °F 30.1 in OSO 2.1 mph 5.2 mph 79% 0 in
08:24 72.1 °F 65.3 °F 30.1 in Oeste 3.1 mph 5 mph 79% 0 in
08:29 72.3 °F 65.1 °F 30.1 in OSO 3 mph 5 mph 78.3% 0 in
08:34 72.3 °F 65.1 °F 30.1 in OSO 2.9 mph 5.2 mph 78% 0 in
08:39 72.7 °F 65.3 °F 30.1 in OSO 2.9 mph 5.2 mph 77.4% 0 in
08:44 72.9 °F 65.1 °F 30.1 in Oeste 3.1 mph 5.9 mph 77% 0 in
08:49 72.9 °F 65.3 °F 30.1 in ONO 3.1 mph 6 mph 77% 0 in
08:54 73 °F 65.5 °F 30.1 in ONO 3.1 mph 6 mph 77% 0 in
08:59 73 °F 65.3 °F 30.1 in Oeste 3.2 mph 6.2 mph 76.5% 0 in
09:04 73.2 °F 65.1 °F 30.1 in OSO 3.6 mph 6.2 mph 76% 0 in
09:09 73.4 °F 65.1 °F 30.1 in OSO 3.6 mph 6 mph 75.5% 0 in
09:14 73.6 °F 65.1 °F 30.1 in OSO 3.6 mph 6 mph 75% 0 in
09:19 73.8 °F 65.3 °F 30.1 in OSO 3.5 mph 6 mph 75% 0 in
09:24 73.9 °F 65.3 °F 30.1 in SO 3.1 mph 6 mph 74.7% 0 in
09:29 74.1 °F 65.1 °F 30.1 in OSO 3 mph 5.9 mph 73.6% 0 in
09:34 74.5 °F 65.3 °F 30.1 in ONO 2.9 mph 6 mph 73% 0 in
09:39 74.7 °F 65.3 °F 30.1 in Oeste 2.9 mph 6 mph 72.8% 0 in
09:44 74.8 °F 65.3 °F 30.1 in OSO 3.1 mph 5.2 mph 72% 0 in
09:49 75.2 °F 65.1 °F 30.1 in SO 3.1 mph 6.9 mph 71.2% 0 in
09:54 75.6 °F 65.3 °F 30.1 in SO 3.1 mph 8.1 mph 71% 0 in
09:59 75.6 °F 65.5 °F 30.1 in SO 3.2 mph 8.1 mph 70.8% 0 in
10:04 75.7 °F 65.3 °F 30.1 in OSO 3.6 mph 8.1 mph 70% 0 in
10:09 75.7 °F 64.9 °F 30.1 in SO 3.6 mph 8 mph 69.1% 0 in
10:14 75.7 °F 65.3 °F 30.1 in OSO 3.6 mph 9.2 mph 70% 0 in
10:19 75.9 °F 65.3 °F 30.1 in Oeste 3.6 mph 9 mph 69.7% 0 in
10:24 76.3 °F 65.3 °F 30.1 in Oeste 3.6 mph 7 mph 68.9% 0 in
10:29 76.5 °F 65.1 °F 30.1 in OSO 3.4 mph 7.4 mph 68% 0 in
10:34 76.6 °F 65.1 °F 30.1 in SO 2.9 mph 7 mph 67.8% 0 in
10:39 77 °F 65.3 °F 30.1 in ONO 2.7 mph 5 mph 67.1% 0 in
10:44 77.4 °F 65.5 °F 30.1 in ONO 2 mph 5 mph 66.8% 0 in
10:49 77.9 °F 65.5 °F 30.1 in SO 2 mph 5.2 mph 65.7% 0 in
10:54 78.4 °F 65.5 °F 30.1 in SSO 2 mph 5.9 mph 64.5% 0 in
10:59 78.6 °F 65.3 °F 30.1 in SE 2.2 mph 6 mph 63.5% 0 in
11:04 79 °F 65.3 °F 30.1 in SSO 2.9 mph 6.9 mph 62.7% 0 in
11:09 79.3 °F 65.1 °F 30.1 in Oeste 2.8 mph 7 mph 61.8% 0 in
11:14 79.9 °F 64.9 °F 30.1 in Sur 2.4 mph 6 mph 60.3% 0 in
11:19 79.9 °F 64.8 °F 30.1 in ESE 2.7 mph 6 mph 60% 0 in
11:24 80.2 °F 64.6 °F 30.1 in ESE 3.6 mph 7.4 mph 58.8% 0 in
11:29 80.2 °F 64.8 °F 30.1 in Sur 3.5 mph 7 mph 59.1% 0 in
11:34 80.8 °F 64.9 °F 30.1 in Este 3.1 mph 6.9 mph 58.6% 0 in
11:39 81 °F 64.8 °F 30.1 in ESE 3.2 mph 7 mph 58% 0 in
11:44 81 °F 64.6 °F 30.1 in Este 3.6 mph 6.2 mph 57.2% 0 in
11:49 81.3 °F 64.6 °F 30.1 in North 3.5 mph 6 mph 56.9% 0 in
11:54 81.9 °F 64.4 °F 30.1 in NNE 3.1 mph 6.9 mph 55.6% 0 in
11:59 81.9 °F 64.2 °F 30.1 in NE 3.1 mph 7 mph 55% 0 in
12:04 82 °F 64.2 °F 30.1 in NNE 3.1 mph 6.9 mph 54.8% 0 in
12:09 82.2 °F 63.9 °F 30.1 in NNO 3 mph 7 mph 53.8% 0 in
12:14 82.6 °F 63.9 °F 30.1 in NNE 2.9 mph 7.4 mph 53.4% 0 in
12:19 82.8 °F 63.9 °F 30.1 in Este 3.2 mph 8.1 mph 53% 0 in
12:24 82.6 °F 64 °F 30.1 in ENE 4 mph 8 mph 53.6% 0 in
12:29 82.9 °F 63.5 °F 30.1 in NE 4 mph 12.7 mph 52.3% 0 in
12:34 82.6 °F 63.5 °F 30.1 in NE 4 mph 13 mph 52.3% 0 in
12:39 82.6 °F 63.7 °F 30.1 in NNE 4.5 mph 10 mph 53% 0 in
12:44 82.8 °F 63.7 °F 30.1 in ENE 5.9 mph 11.8 mph 52.6% 0 in
12:49 82.8 °F 63.7 °F 30.1 in ENE 5.6 mph 12 mph 52.6% 0 in
12:54 82.9 °F 63.1 °F 30.1 in ENE 4.7 mph 12.7 mph 51.6% 0 in
12:59 82.9 °F 63.3 °F 30.1 in North 4.9 mph 13 mph 51.7% 0 in
13:04 82.9 °F 63.3 °F 30.1 in North 5.4 mph 11.8 mph 51.6% 0 in
13:09 83.1 °F 63 °F 30.1 in NE 5.5 mph 13 mph 50.5% 0 in
13:14 83.1 °F 63 °F 30.1 in NE 5.9 mph 13 mph 50.8% 0 in
13:19 83.1 °F 63.7 °F 30.1 in NNE 6 mph 13 mph 51.8% 0 in
13:24 83.7 °F 63.7 °F 30.1 in NNE 6.4 mph 11 mph 51.3% 0 in
13:29 83.7 °F 63.3 °F 30.1 in NNE 6.3 mph 13.8 mph 50.7% 0 in
13:34 83.5 °F 63.3 °F 30.1 in NE 6.2 mph 14 mph 50.8% 0 in
13:39 83.7 °F 63.5 °F 30.1 in NE 6.3 mph 12 mph 51% 0 in
13:44 84 °F 64 °F 30.1 in Este 6.9 mph 11 mph 51.2% 0 in
13:49 84.6 °F 64 °F 30.1 in ENE 6.6 mph 13 mph 50.3% 0 in
13:54 84.4 °F 64 °F 30.1 in NE 5.9 mph 13 mph 50.6% 0 in
13:59 84.2 °F 64.4 °F 30.1 in NNE 6 mph 13 mph 51.5% 0 in
14:04 84.2 °F 64.9 °F 30.1 in NE 6.4 mph 13 mph 52.3% 0 in
14:09 84.4 °F 64.9 °F 30.1 in NE 6.6 mph 15 mph 52.2% 0 in
14:14 84.2 °F 64.9 °F 30.1 in NE 7.4 mph 16.8 mph 52.7% 0 in
14:19 83.8 °F 64.9 °F 30.1 in ENE 7.7 mph 17.3 mph 53.3% 0 in
14:24 83.8 °F 65.5 °F 30.1 in NE 8.7 mph 17.3 mph 53.9% 0 in
14:29 84 °F 65.7 °F 30.1 in ENE 8.6 mph 17 mph 54.2% 0 in
14:34 84.4 °F 65.5 °F 30.1 in ENE 8.1 mph 17.5 mph 53.3% 0 in
14:39 84.2 °F 65.1 °F 30 in NE 8.6 mph 17.3 mph 52.9% 0 in
14:44 84 °F 65.5 °F 30 in NE 10 mph 17.3 mph 53.8% 0 in
14:49 84.4 °F 65.8 °F 30 in NE 9.7 mph 17 mph 53.8% 0 in
14:54 84.6 °F 65.8 °F 30 in NE 8.7 mph 16 mph 53.8% 0 in
14:59 84.7 °F 65.7 °F 30 in NE 8.5 mph 14 mph 52.8% 0 in
15:04 84.7 °F 65.7 °F 30 in NE 8.1 mph 16.3 mph 53% 0 in
15:09 84.7 °F 64.4 °F 30 in NE 8.3 mph 17.3 mph 50.7% 0 in
15:14 84.7 °F 64.4 °F 30 in ENE 8.7 mph 17 mph 50.7% 0 in
15:19 84.9 °F 64.6 °F 30 in ENE 8.4 mph 19.7 mph 50.5% 0 in
15:24 84.7 °F 64.8 °F 30 in Este 7.4 mph 20 mph 51.3% 0 in
15:29 84.6 °F 64.9 °F 30 in ENE 7.7 mph 17 mph 51.8% 0 in
15:34 84.6 °F 64.6 °F 30 in ENE 8.7 mph 16.3 mph 51.2% 0 in
15:39 84.6 °F 65.5 °F 30 in ENE 8.6 mph 16 mph 52.9% 0 in
15:44 84.4 °F 65.7 °F 30 in NE 8.5 mph 19.6 mph 53.5% 0 in
15:49 83.8 °F 65.5 °F 30 in ENE 8.8 mph 20 mph 54% 0 in
15:54 84 °F 65.8 °F 30 in NE 10 mph 16.1 mph 54.3% 0 in
15:59 84.4 °F 65.7 °F 30 in NE 9.6 mph 17.3 mph 53.6% 0 in
16:04 84 °F 65.1 °F 30 in NE 8.7 mph 17.3 mph 53.1% 0 in
16:09 84 °F 65.3 °F 30 in ENE 8.9 mph 19.7 mph 53.5% 0 in
16:14 83.8 °F 65.3 °F 30 in ENE 9.7 mph 20 mph 54% 0 in
16:19 83.8 °F 65.7 °F 30 in ENE 9.8 mph 17.3 mph 54.7% 0 in
16:24 83.8 °F 65.1 °F 30 in NE 10.2 mph 19.7 mph 53.4% 0 in
16:29 83.8 °F 64.8 °F 30 in NE 10.1 mph 20 mph 52.8% 0 in
16:34 83.7 °F 64.6 °F 30 in NE 9.7 mph 19 mph 52.7% 0 in
16:39 83.8 °F 64 °F 30 in NE 9.8 mph 19 mph 51.3% 0 in
16:44 84 °F 64.4 °F 30 in NE 10 mph 20.8 mph 51.8% 0 in
16:49 83.8 °F 65.3 °F 30 in ENE 10.1 mph 21 mph 53.8% 0 in
16:54 83.7 °F 64.6 °F 30 in NE 10.2 mph 19.7 mph 52.9% 0 in
16:59 83.7 °F 66 °F 30 in NE 9.8 mph 20 mph 55.2% 0 in
17:04 83.7 °F 65.8 °F 30 in ENE 8.7 mph 16.3 mph 55% 0 in
17:09 83.8 °F 65.3 °F 30 in NE 8.7 mph 16.1 mph 53.8% 0 in
17:14 83.7 °F 65.3 °F 30 in Este 8.7 mph 16.1 mph 53.9% 0 in
17:19 83.7 °F 65.5 °F 30 in ENE 8.4 mph 16 mph 54.3% 0 in
17:24 83.8 °F 64.8 °F 30 in ENE 7.6 mph 13.8 mph 52.7% 0 in
17:29 83.7 °F 63.5 °F 30 in NE 7.8 mph 18.4 mph 50.9% 0 in
17:34 83.7 °F 62.2 °F 30 in ENE 8.7 mph 18 mph 48.6% 0 in
17:39 83.5 °F 63 °F 30 in NE 9 mph 18.1 mph 50.3% 0 in
17:44 83.3 °F 62.4 °F 30 in ENE 10 mph 18.4 mph 49.7% 0 in
17:49 83.3 °F 63 °F 30 in ENE 9.9 mph 17 mph 50.4% 0 in
17:54 83.3 °F 62.6 °F 30 in NE 9.7 mph 17.3 mph 49.9% 0 in
17:59 83.1 °F 62.1 °F 30 in NE 9.8 mph 18.4 mph 49.1% 0 in
18:04 83.5 °F 61.9 °F 30 in NE 10.2 mph 18 mph 48.2% 0 in
18:09 83.7 °F 63 °F 30 in ENE 9.8 mph 16.1 mph 50% 0 in
18:14 83.5 °F 60.8 °F 30 in NE 8.5 mph 19 mph 46.7% 0 in
18:19 83.5 °F 61.5 °F 30 in NE 8.8 mph 19 mph 47.7% 0 in
18:24 83.5 °F 62.2 °F 30 in ENE 9.7 mph 16 mph 49% 0 in
18:29 83.3 °F 61.2 °F 30 in NE 9.2 mph 17.3 mph 47.2% 0 in
18:34 83.1 °F 62.2 °F 30 in NE 7.6 mph 17 mph 49.3% 0 in
18:39 82.9 °F 62.2 °F 30 in ENE 7.9 mph 16.3 mph 49.7% 0 in
18:44 82.8 °F 60.8 °F 30 in ENE 8.7 mph 16 mph 47.5% 0 in
18:49 82.9 °F 62.1 °F 30 in ENE 8.4 mph 15 mph 49.6% 0 in
18:54 82.6 °F 62.8 °F 30 in NE 7.6 mph 15 mph 51.2% 0 in
18:59 82.6 °F 63.7 °F 30 in ENE 7.8 mph 15.6 mph 53.2% 0 in
19:04 82.4 °F 63.5 °F 30 in ENE 8.1 mph 16 mph 53% 0 in
19:09 82.6 °F 64.2 °F 30 in NE 8 mph 14 mph 53.8% 0 in
19:14 82.4 °F 64.9 °F 30 in ENE 7.4 mph 14 mph 55.4% 0 in
19:19 82.2 °F 63.9 °F 30 in NE 7.4 mph 15 mph 54.1% 0 in
19:24 82 °F 63.7 °F 30 in NE 7.4 mph 15.2 mph 53.8% 0 in
19:29 81.7 °F 63.5 °F 30 in NE 7.8 mph 16.3 mph 54.2% 0 in
19:34 81.5 °F 64.2 °F 30 in NE 9.2 mph 16 mph 55.9% 0 in
19:39 81.5 °F 65.1 °F 30 in ENE 8.6 mph 14 mph 57.9% 0 in
19:44 81.1 °F 65.1 °F 30 in ENE 6.9 mph 16.1 mph 58.2% 0 in
19:49 81.1 °F 66 °F 30 in NE 6.8 mph 16 mph 60.2% 0 in
19:54 81 °F 65.3 °F 30 in ENE 6.4 mph 12 mph 58.8% 0 in
19:59 80.8 °F 64.9 °F 30 in NE 6.8 mph 15 mph 58.7% 0 in
20:04 80.4 °F 66 °F 30 in ENE 7.6 mph 15 mph 61.7% 0 in
20:09 80.2 °F 66 °F 30 in ENE 7.6 mph 13.7 mph 62% 0 in
20:14 80.1 °F 65.8 °F 30 in NE 7.6 mph 14 mph 62% 0 in
20:19 79.9 °F 65.8 °F 30 in NE 7.3 mph 14 mph 62% 0 in
20:24 79.9 °F 65.7 °F 30 in NE 6.4 mph 14 mph 62% 0 in
20:29 79.7 °F 65.5 °F 30 in NE 6.3 mph 12.7 mph 61.9% 0 in
20:34 79.3 °F 65.7 °F 30 in NE 6.2 mph 13 mph 62.9% 0 in
20:39 79.2 °F 66 °F 30 in NE 6.5 mph 14 mph 64.1% 0 in
20:44 79 °F 66.2 °F 30 in NE 7.4 mph 14 mph 65.1% 0 in
20:49 79 °F 66.7 °F 30 in NE 7 mph 10 mph 66.2% 0 in
20:54 78.6 °F 66.9 °F 30 in NE 5.9 mph 9.2 mph 67.4% 0 in
20:59 78.6 °F 67.5 °F 30 in NE 5.6 mph 9 mph 68.6% 0 in
21:04 78.4 °F 67.8 °F 30 in NE 4.7 mph 9.2 mph 69.9% 0 in
21:09 78.3 °F 68.2 °F 30 in NE 4.7 mph 9 mph 71.3% 0 in
21:14 78.1 °F 68.4 °F 30 in NE 4.7 mph 9 mph 72% 0 in
21:19 77.9 °F 68.4 °F 30.1 in NE 4.6 mph 9 mph 72.7% 0 in
21:24 77.7 °F 68.4 °F 30.1 in NE 4.3 mph 8.5 mph 73% 0 in
21:29 77.5 °F 68.4 °F 30.1 in NE 4.5 mph 9.2 mph 73.7% 0 in
21:34 77.4 °F 68.5 °F 30.1 in NE 5.2 mph 9 mph 74.2% 0 in
21:39 77.2 °F 68.5 °F 30.1 in NE 5.2 mph 9 mph 75% 0 in
21:44 77.2 °F 68.7 °F 30.1 in NE 5.2 mph 8.1 mph 75.1% 0 in
21:49 77.2 °F 69.1 °F 30.1 in NE 5.1 mph 8.1 mph 76% 0 in
21:54 77 °F 68.9 °F 30.1 in NE 4.7 mph 8.5 mph 76% 0 in
21:59 76.8 °F 69.1 °F 30.1 in NE 4.6 mph 9 mph 76.8% 0 in
22:04 76.8 °F 69.1 °F 30.1 in NE 4.3 mph 8.1 mph 77% 0 in
22:09 76.6 °F 69.1 °F 30.1 in NE 4.4 mph 8.1 mph 77% 0 in
22:14 76.6 °F 69.1 °F 30.1 in NE 4.7 mph 8.1 mph 77.6% 0 in
22:19 76.5 °F 69.1 °F 30.1 in NE 4.7 mph 7.4 mph 78% 0 in
22:24 76.5 °F 69.1 °F 30.1 in NE 4.7 mph 7.4 mph 78% 0 in
22:29 76.3 °F 69.1 °F 30.1 in NE 4.6 mph 7 mph 78.3% 0 in
22:34 76.3 °F 69.3 °F 30.1 in NE 4.3 mph 6 mph 79% 0 in
22:39 76.3 °F 69.3 °F 30.1 in NE 4 mph 6 mph 79% 0 in
22:44 76.3 °F 69.3 °F 30.1 in NE 2.9 mph 6 mph 79% 0 in
22:49 76.3 °F 69.3 °F 30.1 in ENE 2.9 mph 5.8 mph 79% 0 in
22:54 76.3 °F 69.3 °F 30.1 in NE 3.1 mph 6 mph 79% 0 in
22:59 76.3 °F 69.3 °F 30.1 in NE 2.9 mph 5 mph 79% 0 in
23:04 76.3 °F 69.3 °F 30.1 in NNE 2.4 mph 5 mph 79% 0 in
23:09 76.3 °F 69.3 °F 30.1 in NNE 2.5 mph 5.2 mph 79% 0 in
23:14 76.1 °F 69.1 °F 30.1 in NE 2.9 mph 5 mph 79% 0 in
23:19 75.9 °F 68.9 °F 30.1 in North 2.8 mph 5 mph 79.1% 0 in
23:24 75.9 °F 69.3 °F 30.1 in NE 2.4 mph 5 mph 80% 0 in
23:29 75.9 °F 69.3 °F 30.1 in NNE 2.4 mph 5 mph 80% 0 in
23:34 75.7 °F 69.3 °F 30.1 in NNE 2.4 mph 5 mph 80% 0 in
23:39 75.7 °F 69.1 °F 30.1 in North 2.2 mph 5 mph 80% 0 in
23:44 75.7 °F 69.1 °F 30.1 in North 1.8 mph 4.6 mph 80% 0 in
23:49 75.7 °F 69.1 °F 30.1 in NNE 1.8 mph 5 mph 80% 0 in
23:54 75.7 °F 69.1 °F 30.1 in NE 1.8 mph 4 mph 80% 0 in
23:59 75.7 °F 69.1 °F 30.1 in NE 1.3 mph 2.9 mph 80% 0 in
Murcia-Puente Tocinos, España
Compliments of Weather Underground - 3 mb

La estación de MeteoMurcia.com, publica sus datos en los siguientes proyectos:

Weather Underground PWS IMURCIAP2 Meteoclimatic www.awekas.at

W3Counter
Web Analytics